createdAt,value
2023-03-12T00:01:44.455Z,100814.44
2023-03-12T00:03:46.146Z,100814.91
2023-03-12T00:05:47.995Z,100814.91
2023-03-12T00:07:49.594Z,100826.00
2023-03-12T00:09:51.443Z,100825.59
2023-03-12T00:11:53.077Z,100819.25
2023-03-12T00:13:58.754Z,100834.84
2023-03-12T00:16:04.491Z,100828.94
2023-03-12T00:18:06.282Z,100842.53
2023-03-12T00:20:12.522Z,100842.66
2023-03-12T00:22:14.192Z,100843.16
2023-03-12T00:24:15.779Z,100848.81
2023-03-12T00:26:19.300Z,100839.25
2023-03-12T00:28:20.852Z,100844.09
2023-03-12T00:30:23.944Z,100850.44
2023-03-12T00:32:25.731Z,100838.31
2023-03-12T00:34:27.432Z,100844.84
2023-03-12T00:36:32.141Z,100845.03
2023-03-12T00:38:33.795Z,100854.22
2023-03-12T00:40:35.466Z,100854.53
2023-03-12T00:42:37.088Z,100853.88
2023-03-12T00:44:39.107Z,100858.72
2023-03-12T00:46:42.118Z,100856.16
2023-03-12T00:48:44.360Z,100859.16
2023-03-12T00:50:46.006Z,100862.00
2023-03-12T00:52:48.227Z,100868.34
2023-03-12T00:54:49.949Z,100865.13
2023-03-12T00:56:51.577Z,100868.13
2023-03-12T00:58:53.087Z,100868.28
2023-03-12T01:00:54.956Z,100868.44
2023-03-12T01:02:58.246Z,100863.38
2023-03-12T01:04:59.836Z,100872.41
2023-03-12T01:07:01.618Z,100863.81
2023-03-12T01:09:04.144Z,100867.66
2023-03-12T01:11:06.132Z,100869.66
2023-03-12T01:13:07.764Z,100861.75
2023-03-12T01:15:10.898Z,100861.91
2023-03-12T01:17:12.491Z,100872.81
2023-03-12T01:19:15.893Z,100867.59
2023-03-12T01:21:17.750Z,100873.25
2023-03-12T01:23:19.566Z,100876.09
2023-03-12T01:25:21.461Z,100872.84
2023-03-12T01:27:23.773Z,100880.06
2023-03-12T01:29:25.833Z,100881.09
2023-03-12T01:31:27.640Z,100872.50
2023-03-12T01:33:29.302Z,100886.91
2023-03-12T01:35:36.331Z,100876.16
2023-03-12T01:37:38.220Z,100880.81
2023-03-12T01:39:39.824Z,100879.16
2023-03-12T01:41:41.649Z,100879.28
2023-03-12T01:43:43.399Z,100886.50
2023-03-12T01:46:20.151Z,100886.66
2023-03-12T01:48:22.232Z,100878.75
2023-03-12T01:50:24.030Z,100894.16
2023-03-12T01:52:30.782Z,100885.41
2023-03-12T01:54:36.039Z,100883.69
2023-03-12T01:56:39.121Z,100892.78
2023-03-12T01:58:44.211Z,100900.09
2023-03-12T02:00:45.963Z,100893.03
2023-03-12T02:02:50.685Z,100898.56
2023-03-12T02:04:57.443Z,100900.41
2023-03-12T02:07:05.694Z,100901.41
2023-03-12T02:09:08.740Z,100896.19
2023-03-12T02:11:10.746Z,100898.34
2023-03-12T02:13:12.947Z,100896.50
2023-03-12T02:15:14.542Z,100905.53
2023-03-12T02:17:16.182Z,100903.00
2023-03-12T02:19:23.601Z,100902.13
2023-03-12T02:21:27.565Z,100902.31
2023-03-12T02:23:35.374Z,100902.31
2023-03-12T02:25:41.495Z,100904.28
2023-03-12T02:27:44.084Z,100913.34
2023-03-12T02:29:46.127Z,100911.78
2023-03-12T02:31:52.422Z,100912.78
2023-03-12T02:33:54.055Z,100919.97
2023-03-12T02:35:56.718Z,100926.47
2023-03-12T02:37:58.410Z,100926.47
2023-03-12T02:40:05.643Z,100932.00
2023-03-12T02:42:08.833Z,100932.13
2023-03-12T02:44:14.539Z,100931.28
2023-03-12T02:46:17.115Z,100934.25
2023-03-12T02:48:19.075Z,100933.41
2023-03-12T02:50:21.029Z,100930.91
2023-03-12T02:52:22.637Z,100942.59
2023-03-12T02:54:24.989Z,100938.38
2023-03-12T02:56:28.915Z,100940.34
2023-03-12T02:58:32.303Z,100944.88
2023-03-12T03:00:34.159Z,100944.19
2023-03-12T03:02:35.708Z,100952.34
2023-03-12T03:04:37.648Z,100950.69
2023-03-12T03:06:41.763Z,100956.19
2023-03-12T03:08:43.420Z,100958.00
2023-03-12T03:10:45.213Z,100959.00
2023-03-12T03:12:46.826Z,100959.16
2023-03-12T03:14:50.011Z,100957.47
2023-03-12T03:16:51.674Z,100958.31
2023-03-12T03:18:53.327Z,100965.50
2023-03-12T03:20:56.267Z,100962.13
2023-03-12T03:22:57.884Z,100961.28
2023-03-12T03:24:59.711Z,100970.19
2023-03-12T03:27:01.324Z,100968.47
2023-03-12T03:29:03.377Z,100966.78
2023-03-12T03:31:06.964Z,100970.31
2023-03-12T03:33:08.572Z,100973.13
2023-03-12T03:35:10.613Z,100973.28
2023-03-12T03:37:12.418Z,100981.31
2023-03-12T03:39:14.369Z,100976.09
2023-03-12T03:41:17.401Z,100980.59
2023-03-12T03:43:19.308Z,100982.47
2023-03-12T03:45:20.981Z,100979.06
2023-03-12T03:47:24.319Z,100978.22
2023-03-12T03:49:25.956Z,100978.38
2023-03-12T03:51:27.729Z,100991.63
2023-03-12T03:53:29.992Z,100996.13
2023-03-12T03:55:31.973Z,100997.16
2023-03-12T03:57:33.553Z,100993.63
2023-03-12T03:59:35.301Z,100992.59
2023-03-12T04:01:36.903Z,100987.09
2023-03-12T04:03:40.005Z,100990.63
2023-03-12T04:05:41.984Z,100987.09
2023-03-12T04:07:43.803Z,100998.69
2023-03-12T04:09:45.437Z,100999.53
2023-03-12T04:11:47.047Z,101002.22
2023-03-12T04:13:49.385Z,101001.34
2023-03-12T04:15:53.305Z,101008.56
2023-03-12T04:17:55.018Z,101005.88
2023-03-12T04:19:58.508Z,101009.53
2023-03-12T04:22:00.516Z,101011.38
2023-03-12T04:24:02.628Z,101013.34
2023-03-12T04:26:04.929Z,101017.00
2023-03-12T04:28:07.099Z,101014.34
2023-03-12T04:30:09.967Z,101011.81
2023-03-12T04:32:11.593Z,101013.66
2023-03-12T04:34:14.580Z,101017.19
2023-03-12T04:36:18.080Z,101013.78
2023-03-12T04:38:20.259Z,101015.75
2023-03-12T04:40:22.208Z,101020.41
2023-03-12T04:42:23.847Z,101015.91
2023-03-12T04:44:25.606Z,101016.06
2023-03-12T04:46:28.025Z,101022.41
2023-03-12T04:48:29.650Z,101027.75
2023-03-12T04:50:31.287Z,101022.53
2023-03-12T04:52:34.593Z,101023.53
2023-03-12T04:54:36.411Z,101029.88
2023-03-12T04:56:38.436Z,101024.81
2023-03-12T04:58:40.224Z,101026.63
2023-03-12T05:00:42.547Z,101028.59
2023-03-12T05:02:44.518Z,101031.41
2023-03-12T05:04:46.380Z,101029.84
2023-03-12T05:06:48.112Z,101032.53
2023-03-12T05:08:51.448Z,101037.19
2023-03-12T05:10:53.017Z,101037.31
2023-03-12T05:12:54.680Z,101051.72
2023-03-12T05:14:56.245Z,101041.25
2023-03-12T05:16:58.125Z,101047.63
2023-03-12T05:18:59.917Z,101047.75
2023-03-12T05:21:03.776Z,101050.59
2023-03-12T05:23:05.586Z,101052.44
2023-03-12T05:25:10.705Z,101053.41
2023-03-12T05:27:12.763Z,101056.22
2023-03-12T05:29:14.420Z,101053.69
2023-03-12T05:31:17.279Z,101058.19
2023-03-12T05:33:19.052Z,101062.69
2023-03-12T05:35:20.823Z,101059.31
2023-03-12T05:37:22.687Z,101063.84
2023-03-12T05:39:25.538Z,101070.16
2023-03-12T05:41:29.869Z,101068.47
2023-03-12T05:43:31.610Z,101073.97
2023-03-12T05:45:33.810Z,101071.41
2023-03-12T05:47:35.542Z,101064.38
2023-03-12T05:49:37.174Z,101074.25
2023-03-12T05:51:38.825Z,101080.59
2023-03-12T05:53:40.578Z,101085.09
2023-03-12T05:55:42.209Z,101080.72
2023-03-12T05:57:45.372Z,101079.88
2023-03-12T05:59:47.270Z,101084.25
2023-03-12T06:01:49.188Z,101084.13
2023-03-12T06:03:51.086Z,101085.78
2023-03-12T06:05:52.839Z,101094.38
2023-03-12T06:07:54.405Z,101090.63
2023-03-12T06:09:56.412Z,101091.19
2023-03-12T06:11:58.009Z,101092.72
2023-03-12T06:14:01.019Z,101093.31
2023-03-12T06:16:03.251Z,101097.41
2023-03-12T06:18:04.955Z,101097.13
2023-03-12T06:20:08.189Z,101098.41
2023-03-12T06:22:10.409Z,101104.34
2023-03-12T06:24:12.314Z,101103.91
2023-03-12T06:26:15.553Z,101097.25
2023-03-12T06:28:17.159Z,101104.91
2023-03-12T06:30:20.491Z,101105.47
2023-03-12T06:32:22.226Z,101109.44
2023-03-12T06:34:24.092Z,101109.84
2023-03-12T06:36:25.751Z,101107.59
2023-03-12T06:38:27.467Z,101102.66
2023-03-12T06:40:29.943Z,101109.16
2023-03-12T06:42:31.492Z,101108.84
2023-03-12T06:44:33.239Z,101109.84
2023-03-12T06:46:36.517Z,101108.41
2023-03-12T06:48:38.158Z,101118.44
2023-03-12T06:50:39.674Z,101120.69
2023-03-12T06:52:41.567Z,101119.13
2023-03-12T06:54:43.462Z,101122.06
2023-03-12T06:56:45.004Z,101117.81
2023-03-12T06:58:46.620Z,101123.00
2023-03-12T07:00:48.545Z,101126.38
2023-03-12T07:02:51.935Z,101121.56
2023-03-12T07:04:53.619Z,101132.97
2023-03-12T07:06:55.174Z,101134.06
2023-03-12T07:08:56.757Z,101134.47
2023-03-12T07:11:01.298Z,101132.72
2023-03-12T07:13:03.675Z,101141.06
2023-03-12T07:15:06.419Z,101139.59
2023-03-12T07:17:08.068Z,101143.25
2023-03-12T07:19:11.144Z,101143.34
2023-03-12T07:21:13.195Z,101156.03
2023-03-12T07:23:15.080Z,101146.22
2023-03-12T07:25:18.623Z,101142.78
2023-03-12T07:27:20.798Z,101147.38
2023-03-12T07:29:22.611Z,101143.94
2023-03-12T07:31:24.179Z,101144.72
2023-03-12T07:33:26.149Z,101150.19
2023-03-12T07:35:29.694Z,101147.56
2023-03-12T07:37:31.513Z,101147.47
2023-03-12T07:39:33.406Z,101135.81
2023-03-12T07:41:35.334Z,101137.72
2023-03-12T07:43:37.299Z,101140.47
2023-03-12T07:45:39.844Z,101134.59
2023-03-12T07:47:41.522Z,101137.22
2023-03-12T07:49:44.454Z,101135.72
2023-03-12T07:51:47.814Z,101137.63
2023-03-12T07:53:49.410Z,101140.25
2023-03-12T07:55:51.013Z,101126.97
2023-03-12T07:57:53.086Z,101131.38
2023-03-12T07:59:54.962Z,101131.28
2023-03-12T08:01:56.674Z,101141.41
2023-03-12T08:03:58.591Z,101132.84
2023-03-12T08:06:02.063Z,101132.19
2023-03-12T08:08:05.316Z,101138.34
2023-03-12T08:10:09.359Z,101139.19
2023-03-12T08:12:11.167Z,101145.31
2023-03-12T08:14:12.903Z,101140.78
2023-03-12T08:16:14.583Z,101143.50
2023-03-12T08:18:16.223Z,101147.22
2023-03-12T08:20:17.958Z,101144.56
2023-03-12T08:22:19.890Z,101138.16
2023-03-12T08:24:22.824Z,101137.16
2023-03-12T08:26:24.455Z,101134.50
2023-03-12T08:28:26.030Z,101134.31
2023-03-12T08:30:30.088Z,101146.81
2023-03-12T08:32:32.513Z,101145.66
2023-03-12T08:34:34.900Z,101145.69
2023-03-12T08:36:36.497Z,101149.91
2023-03-12T08:38:38.148Z,101149.03
2023-03-12T08:40:41.317Z,101149.84
2023-03-12T08:42:44.525Z,101148.00
2023-03-12T08:44:46.181Z,101150.53
2023-03-12T08:46:48.134Z,101154.59
2023-03-12T08:48:50.085Z,101158.47
2023-03-12T08:50:51.674Z,101155.75
2023-03-12T08:52:53.208Z,101159.81
2023-03-12T08:54:54.783Z,101161.34
2023-03-12T08:56:57.791Z,101145.78
2023-03-12T08:58:59.831Z,101157.78
2023-03-12T09:01:01.384Z,101150.19
2023-03-12T09:03:03.125Z,101158.25
2023-03-12T09:05:05.554Z,101150.97
2023-03-12T09:07:07.166Z,101157.88
2023-03-12T09:09:08.857Z,101152.44
2023-03-12T09:11:11.967Z,101149.56
2023-03-12T09:13:15.124Z,101151.88
2023-03-12T09:15:17.260Z,101152.00
2023-03-12T09:17:18.966Z,101150.78
2023-03-12T09:19:20.762Z,101157.47
2023-03-12T09:21:22.576Z,101150.31
2023-03-12T09:23:24.677Z,101146.53
2023-03-12T09:25:26.372Z,101144.63
2023-03-12T09:27:27.919Z,101148.63
2023-03-12T09:29:31.242Z,101145.00
2023-03-12T09:31:32.876Z,101145.28
2023-03-12T09:33:34.603Z,101135.41
2023-03-12T09:35:36.469Z,101136.69
2023-03-12T09:37:38.526Z,101138.94
2023-03-12T09:39:40.095Z,101141.38
2023-03-12T09:41:44.828Z,101127.22
2023-03-12T09:43:52.356Z,101130.53
2023-03-12T09:45:56.097Z,101133.34
2023-03-12T09:48:00.196Z,101126.91
2023-03-12T09:50:05.630Z,101138.13
2023-03-12T09:52:17.936Z,101131.38
2023-03-12T09:54:28.208Z,101127.28
2023-03-12T09:56:30.508Z,101134.09
2023-03-12T09:58:34.664Z,101135.50
2023-03-12T10:00:36.866Z,101123.31
2023-03-12T10:03:09.648Z,101125.91
2023-03-12T10:05:18.431Z,101118.97
2023-03-12T10:07:30.070Z,101118.28
2023-03-12T10:09:49.653Z,101128.25
2023-03-12T10:12:03.928Z,101122.09
2023-03-12T10:14:23.963Z,101118.63
2023-03-12T10:16:37.574Z,101115.72
2023-03-12T10:18:57.060Z,101113.97
2023-03-12T10:21:11.272Z,101115.91
2023-03-12T10:23:22.258Z,101113.91
2023-03-12T10:25:32.049Z,101113.72
2023-03-12T10:27:35.685Z,101113.22
2023-03-12T10:29:43.356Z,101116.25
2023-03-12T10:31:54.154Z,101120.06
2023-03-12T10:33:58.554Z,101119.63
2023-03-12T10:36:00.276Z,101118.13
2023-03-12T10:38:04.160Z,101123.38
2023-03-12T10:40:06.717Z,101133.63
2023-03-12T10:42:16.326Z,101127.53
2023-03-12T10:44:21.605Z,101123.97
2023-03-12T10:46:43.451Z,101136.97
2023-03-12T10:48:45.035Z,101135.06
2023-03-12T10:51:02.288Z,101131.78
2023-03-12T10:53:19.141Z,101116.97
2023-03-12T10:55:24.486Z,101111.34
2023-03-12T10:57:39.691Z,101105.81
2023-03-12T10:59:42.752Z,101107.28
2023-03-12T11:01:49.835Z,101104.63
2023-03-12T11:03:53.201Z,101101.97
2023-03-12T11:05:58.769Z,101093.41
2023-03-12T11:08:02.264Z,101090.09
2023-03-12T11:10:20.585Z,101083.69
2023-03-12T11:12:31.920Z,101081.38
2023-03-12T11:14:33.818Z,101090.66
2023-03-12T11:16:35.546Z,101089.63
2023-03-12T11:18:38.244Z,101086.28
2023-03-12T11:20:40.354Z,101073.31
2023-03-12T11:22:43.316Z,101077.28
2023-03-12T11:24:56.753Z,101067.44
2023-03-12T11:27:04.321Z,101069.72
2023-03-12T11:29:25.496Z,101084.63
2023-03-12T11:31:31.707Z,101083.78
2023-03-12T11:33:34.136Z,101076.88
2023-03-12T11:35:47.614Z,101072.25
2023-03-12T11:37:58.876Z,101073.97
2023-03-12T11:40:16.179Z,101076.25
2023-03-12T11:42:32.453Z,101076.03
2023-03-12T11:44:44.451Z,101071.63
2023-03-12T11:46:56.588Z,101070.16
2023-03-12T11:49:09.317Z,101073.72
2023-03-12T11:51:27.642Z,101072.88
2023-03-12T11:53:47.693Z,101073.28
2023-03-12T11:56:01.340Z,101065.09
2023-03-12T11:58:20.065Z,101070.94
2023-03-12T12:00:28.282Z,101061.91
2023-03-12T12:02:54.754Z,101059.78
2023-03-12T12:05:08.587Z,101061.28
2023-03-12T12:07:19.697Z,101048.28
2023-03-12T12:09:35.477Z,101037.16
2023-03-12T12:11:46.167Z,101036.31
2023-03-12T12:13:58.909Z,101038.41
2023-03-12T12:16:13.796Z,101033.38
2023-03-12T12:18:35.511Z,101046.78
2023-03-12T12:20:47.149Z,101038.19
2023-03-12T12:23:04.314Z,101036.31
2023-03-12T12:25:30.445Z,101027.31
2023-03-12T12:27:40.041Z,101025.84
2023-03-12T12:29:56.616Z,101029.41
2023-03-12T12:32:01.949Z,101028.38
2023-03-12T12:34:26.182Z,101027.34
2023-03-12T12:36:32.774Z,101030.47
2023-03-12T12:38:38.339Z,101029.22
2023-03-12T12:40:44.704Z,101029.66
2023-03-12T12:42:55.891Z,101036.16
2023-03-12T12:45:00.480Z,101029.44
2023-03-12T12:47:04.857Z,101023.97
2023-03-12T12:49:12.309Z,101027.53
2023-03-12T12:51:16.818Z,101027.28
2023-03-12T12:53:23.535Z,101022.88
2023-03-12T12:55:30.971Z,101028.13
2023-03-12T12:57:41.336Z,101027.69
2023-03-12T12:59:51.606Z,101017.22
2023-03-12T13:01:55.950Z,101020.31
2023-03-12T13:04:02.942Z,101018.00
2023-03-12T13:06:06.122Z,101014.88
2023-03-12T13:08:08.175Z,101014.25
2023-03-12T13:10:48.324Z,101007.75
2023-03-12T13:13:04.078Z,100991.81
2023-03-12T13:15:34.426Z,100998.09
2023-03-12T13:17:57.026Z,100995.19
2023-03-12T13:20:07.098Z,100998.09
2023-03-12T13:22:18.038Z,101007.72
2023-03-12T13:24:24.920Z,101007.03
2023-03-12T13:26:31.694Z,101016.66
2023-03-12T13:28:37.663Z,101010.56
2023-03-12T13:30:49.180Z,101021.59
2023-03-12T13:33:13.165Z,101008.16
2023-03-12T13:35:30.702Z,101012.56
2023-03-12T13:38:01.074Z,101007.53
2023-03-12T13:40:02.849Z,101003.28
2023-03-12T13:42:36.972Z,101008.91
2023-03-12T13:44:40.416Z,100999.03
2023-03-12T13:46:48.416Z,100995.84
2023-03-12T13:48:50.478Z,100989.34
2023-03-12T13:50:55.318Z,100995.34
2023-03-12T13:53:06.814Z,100994.91
2023-03-12T13:55:23.106Z,100988.41
2023-03-12T13:57:35.574Z,100983.97
2023-03-12T13:59:46.596Z,100987.72
2023-03-12T14:01:54.130Z,100977.00
2023-03-12T14:04:02.163Z,100961.28
2023-03-12T14:06:11.169Z,100964.41
2023-03-12T14:08:29.822Z,100971.25
2023-03-12T14:10:43.554Z,100959.31
2023-03-12T14:12:56.680Z,100951.56
2023-03-12T14:15:15.830Z,100957.59
2023-03-12T14:17:20.591Z,100938.91
2023-03-12T14:19:25.230Z,100932.41
2023-03-12T14:21:34.034Z,100921.94
2023-03-12T14:23:39.865Z,100926.25
2023-03-12T14:25:44.502Z,100918.91
2023-03-12T14:27:47.567Z,100913.03
2023-03-12T14:29:55.745Z,100918.00
2023-03-12T14:32:04.279Z,100903.78
2023-03-12T14:34:12.675Z,100905.19
2023-03-12T14:36:18.536Z,100896.44
2023-03-12T14:38:26.883Z,100902.03
2023-03-12T14:40:38.579Z,100903.28
2023-03-12T14:42:40.489Z,100901.81
2023-03-12T14:44:54.343Z,100910.34
2023-03-12T14:46:58.832Z,100902.78
2023-03-12T14:49:00.448Z,100893.75
2023-03-12T14:51:04.771Z,100894.94
2023-03-12T14:53:17.801Z,100884.88
2023-03-12T14:55:24.634Z,100877.31
2023-03-12T14:57:26.870Z,100866.88
2023-03-12T14:59:30.295Z,100857.44
2023-03-12T15:01:34.397Z,100850.09
2023-03-12T15:03:43.674Z,100862.13
2023-03-12T15:05:47.345Z,100856.25
2023-03-12T15:07:50.878Z,100852.28
2023-03-12T15:09:53.309Z,100854.16
2023-03-12T15:11:57.528Z,100856.19
2023-03-12T15:14:04.299Z,100855.34
2023-03-12T15:16:07.382Z,100845.75
2023-03-12T15:18:16.213Z,100848.44
2023-03-12T15:20:21.953Z,100848.00
2023-03-12T15:22:26.489Z,100849.03
2023-03-12T15:24:30.973Z,100846.91
2023-03-12T15:26:33.898Z,100843.53
2023-03-12T15:28:36.171Z,100842.91
2023-03-12T15:30:39.850Z,100839.53
2023-03-12T15:32:41.530Z,100835.50
2023-03-12T15:34:43.669Z,100823.16
2023-03-12T15:36:49.908Z,100823.56
2023-03-12T15:38:54.587Z,100816.84
2023-03-12T15:41:01.349Z,100813.66
2023-03-12T15:43:03.276Z,100819.47
2023-03-12T15:45:07.002Z,100824.22
2023-03-12T15:47:13.446Z,100824.81
2023-03-12T15:49:23.857Z,100829.59
2023-03-12T15:51:32.719Z,100833.53
2023-03-12T15:53:35.755Z,100828.47
2023-03-12T15:55:38.514Z,100824.47
2023-03-12T15:57:46.573Z,100825.50
2023-03-12T16:00:08.771Z,100825.03
2023-03-12T16:02:12.076Z,100823.72
2023-03-12T16:04:13.686Z,100820.34
2023-03-12T16:06:17.771Z,100813.47
2023-03-12T16:08:22.423Z,100811.31
2023-03-12T16:10:27.079Z,100801.72
2023-03-12T16:12:28.707Z,100812.06
2023-03-12T16:14:32.848Z,100804.72
2023-03-12T16:16:34.928Z,100803.59
2023-03-12T16:18:36.650Z,100796.03
2023-03-12T16:20:38.237Z,100780.53
2023-03-12T16:22:39.987Z,100781.09
2023-03-12T16:24:41.586Z,100776.25
2023-03-12T16:26:48.961Z,100784.09
2023-03-12T16:28:50.766Z,100782.78
2023-03-12T16:30:53.467Z,100782.88
2023-03-12T16:32:56.010Z,100780.72
2023-03-12T16:34:57.904Z,100776.06
2023-03-12T16:37:00.116Z,100775.78
2023-03-12T16:39:02.000Z,100768.25
2023-03-12T16:41:03.811Z,100772.97
2023-03-12T16:43:14.311Z,100775.22
2023-03-12T16:45:17.869Z,100781.84
2023-03-12T16:47:19.863Z,100784.25
2023-03-12T16:49:21.421Z,100780.06
2023-03-12T16:51:23.487Z,100792.44
2023-03-12T16:53:25.435Z,100800.91
2023-03-12T16:55:30.631Z,100803.97
2023-03-12T16:57:34.509Z,100803.69
2023-03-12T16:59:39.607Z,100803.41
2023-03-12T17:01:41.398Z,100810.19
2023-03-12T17:03:44.884Z,100791.81
2023-03-12T17:05:46.743Z,100800.28
2023-03-12T17:07:48.381Z,100798.97
2023-03-12T17:09:50.044Z,100798.50
2023-03-12T17:11:52.142Z,100799.88
2023-03-12T17:13:57.636Z,100805.44
2023-03-12T17:16:00.924Z,100800.59
2023-03-12T17:18:02.511Z,100792.84
2023-03-12T17:20:07.240Z,100797.94
2023-03-12T17:22:09.080Z,100802.19
2023-03-12T17:24:10.806Z,100793.63
2023-03-12T17:26:12.354Z,100800.59
2023-03-12T17:28:14.694Z,100793.84
2023-03-12T17:30:16.654Z,100793.38
2023-03-12T17:32:19.909Z,100791.03
2023-03-12T17:34:21.648Z,100790.56
2023-03-12T17:36:23.313Z,100779.44
2023-03-12T17:38:26.126Z,100788.75
2023-03-12T17:40:28.492Z,100774.53
2023-03-12T17:42:30.662Z,100773.19
2023-03-12T17:44:32.791Z,100771.69
2023-03-12T17:46:35.484Z,100778.09
2023-03-12T17:48:39.200Z,100770.38
2023-03-12T17:50:41.052Z,100770.72
2023-03-12T17:52:42.867Z,100770.25
2023-03-12T17:54:45.069Z,100773.31
2023-03-12T17:56:46.985Z,100769.75
2023-03-12T17:58:48.581Z,100767.41
2023-03-12T18:00:50.145Z,100775.19
2023-03-12T18:02:51.967Z,100770.16
2023-03-12T18:04:55.215Z,100768.63
2023-03-12T18:06:57.284Z,100775.22
2023-03-12T18:08:58.890Z,100762.94
2023-03-12T18:11:00.825Z,100761.44
2023-03-12T18:13:02.664Z,100755.53
2023-03-12T18:15:04.983Z,100754.03
2023-03-12T18:17:07.062Z,100748.97
2023-03-12T18:19:08.686Z,100745.63
2023-03-12T18:21:12.493Z,100751.34
2023-03-12T18:23:14.334Z,100745.31
2023-03-12T18:25:16.087Z,100753.75
2023-03-12T18:27:17.636Z,100740.63
2023-03-12T18:29:19.450Z,100743.47
2023-03-12T18:31:21.557Z,100739.09
2023-03-12T18:33:23.428Z,100738.44
2023-03-12T18:35:25.814Z,100746.69
2023-03-12T18:37:30.857Z,100746.03
2023-03-12T18:39:32.662Z,100745.34
2023-03-12T18:41:34.881Z,100731.22
2023-03-12T18:43:37.204Z,100736.78
2023-03-12T18:45:42.042Z,100730.72
2023-03-12T18:47:43.827Z,100735.44
2023-03-12T18:49:45.652Z,100731.25
2023-03-12T18:51:47.605Z,100738.69
2023-03-12T18:53:50.885Z,100734.44
2023-03-12T18:55:53.460Z,100732.78
2023-03-12T18:57:55.314Z,100739.34
2023-03-12T18:59:57.029Z,100736.00
2023-03-12T19:01:58.605Z,100731.78
2023-03-12T19:04:00.291Z,100738.34
2023-03-12T19:06:03.180Z,100743.09
2023-03-12T19:08:05.309Z,100742.41
2023-03-12T19:10:11.354Z,100738.03
2023-03-12T19:12:14.354Z,100730.28
2023-03-12T19:14:16.006Z,100725.94
2023-03-12T19:16:18.950Z,100720.84
2023-03-12T19:18:20.598Z,100719.19
2023-03-12T19:20:22.213Z,100717.66
2023-03-12T19:22:24.338Z,100709.09
2023-03-12T19:24:26.408Z,100703.38
2023-03-12T19:26:29.617Z,100702.69
2023-03-12T19:28:31.284Z,100699.34
2023-03-12T19:30:33.309Z,100701.34
2023-03-12T19:32:43.364Z,100695.47
2023-03-12T19:34:45.755Z,100691.44
2023-03-12T19:36:47.404Z,100684.53
2023-03-12T19:38:49.227Z,100670.59
2023-03-12T19:40:50.909Z,100680.69
2023-03-12T19:42:54.502Z,100666.72
2023-03-12T19:44:56.063Z,100662.00
2023-03-12T19:46:58.095Z,100657.63
2023-03-12T19:48:59.967Z,100652.94
2023-03-12T19:51:05.382Z,100650.94
2023-03-12T19:53:07.443Z,100654.78
2023-03-12T19:55:09.802Z,100658.81
2023-03-12T19:57:12.130Z,100653.97
2023-03-12T19:59:16.229Z,100648.94
2023-03-12T20:01:17.923Z,100651.94
2023-03-12T20:03:19.531Z,100643.34
2023-03-12T20:05:21.135Z,100644.88
2023-03-12T20:07:23.061Z,100643.19
2023-03-12T20:09:24.807Z,100632.78
2023-03-12T20:11:26.777Z,100630.59
2023-03-12T20:13:28.446Z,100621.66
2023-03-12T20:15:31.840Z,100626.38
2023-03-12T20:17:33.461Z,100635.66
2023-03-12T20:19:35.083Z,100625.19
2023-03-12T20:21:36.888Z,100607.56
2023-03-12T20:23:38.839Z,100613.94
2023-03-12T20:25:40.826Z,100611.44
2023-03-12T20:27:42.473Z,100613.44
2023-03-12T20:29:44.235Z,100608.38
2023-03-12T20:31:47.531Z,100603.16
2023-03-12T20:33:49.155Z,100599.66
2023-03-12T20:35:51.072Z,100597.97
2023-03-12T20:37:54.525Z,100598.31
2023-03-12T20:39:56.076Z,100602.66
2023-03-12T20:41:57.712Z,100602.00
2023-03-12T20:43:59.936Z,100591.38
2023-03-12T20:46:01.907Z,100589.53
2023-03-12T20:48:05.626Z,100595.13
2023-03-12T20:50:08.005Z,100592.56
2023-03-12T20:52:09.581Z,100595.41
2023-03-12T20:54:11.556Z,100595.59
2023-03-12T20:56:13.524Z,100597.44
2023-03-12T20:58:15.498Z,100595.75
2023-03-12T21:00:17.959Z,100592.22
2023-03-12T21:02:19.967Z,100595.09
2023-03-12T21:04:23.144Z,100585.19
2023-03-12T21:06:25.007Z,100582.00
2023-03-12T21:08:27.780Z,100589.22
2023-03-12T21:10:31.465Z,100585.69
2023-03-12T21:12:33.238Z,100577.78
2023-03-12T21:14:34.910Z,100569.88
2023-03-12T21:16:36.704Z,100560.97
2023-03-12T21:18:38.390Z,100568.19
2023-03-12T21:20:42.301Z,100568.19
2023-03-12T21:22:44.573Z,100554.09
2023-03-12T21:24:46.440Z,100556.78
2023-03-12T21:26:48.057Z,100554.09
2023-03-12T21:28:49.884Z,100562.16
2023-03-12T21:30:52.040Z,100562.97
2023-03-12T21:32:54.118Z,100562.16
2023-03-12T21:34:56.212Z,100561.31
2023-03-12T21:36:59.372Z,100555.25
2023-03-12T21:39:01.618Z,100551.72
2023-03-12T21:41:07.020Z,100536.41
2023-03-12T21:43:10.059Z,100535.75
2023-03-12T21:45:12.206Z,100527.69
2023-03-12T21:47:14.120Z,100534.91
2023-03-12T21:49:16.032Z,100526.00
2023-03-12T21:51:18.699Z,100525.16
2023-03-12T21:53:24.049Z,100500.13
2023-03-12T21:55:26.033Z,100493.09
2023-03-12T21:57:27.612Z,100501.31
2023-03-12T21:59:29.667Z,100506.69
2023-03-12T22:01:31.322Z,100512.22
2023-03-12T22:03:33.264Z,100508.72
2023-03-12T22:05:35.104Z,100507.88
2023-03-12T22:07:37.601Z,100488.19
2023-03-12T22:09:40.861Z,100494.25
2023-03-12T22:11:42.436Z,100495.28
2023-03-12T22:13:44.605Z,100477.44
2023-03-12T22:15:47.412Z,100478.44
2023-03-12T22:17:49.428Z,100484.66
2023-03-12T22:19:51.344Z,100477.44
2023-03-12T22:21:52.930Z,100475.59
2023-03-12T22:23:55.310Z,100480.13
2023-03-12T22:26:01.904Z,100478.28
2023-03-12T22:28:04.024Z,100472.72
2023-03-12T22:30:07.037Z,100469.19
2023-03-12T22:32:09.269Z,100470.88
2023-03-12T22:34:11.132Z,100472.56
2023-03-12T22:36:15.354Z,100467.19
2023-03-12T22:38:17.393Z,100470.53
2023-03-12T22:40:19.402Z,100468.69
2023-03-12T22:42:22.431Z,100460.47
2023-03-12T22:44:24.010Z,100461.31
2023-03-12T22:46:26.285Z,100466.69
2023-03-12T22:48:27.910Z,100452.22
2023-03-12T22:50:29.662Z,100457.59
2023-03-12T22:52:31.321Z,100449.53
2023-03-12T22:54:33.211Z,100440.47
2023-03-12T22:56:35.069Z,100437.78
2023-03-12T22:58:38.252Z,100448.38
2023-03-12T23:00:40.063Z,100440.31
2023-03-12T23:02:41.611Z,100443.84
2023-03-12T23:04:43.254Z,100439.28
2023-03-12T23:06:44.857Z,100442.66
2023-03-12T23:08:47.880Z,100439.97
2023-03-12T23:10:54.230Z,100441.47
2023-03-12T23:12:55.811Z,100438.78
2023-03-12T23:14:59.171Z,100435.91
2023-03-12T23:17:00.757Z,100426.00
2023-03-12T23:19:02.325Z,100428.50
2023-03-12T23:21:06.557Z,100426.50
2023-03-12T23:23:08.365Z,100421.97
2023-03-12T23:25:10.179Z,100411.03
2023-03-12T23:27:11.861Z,100409.03
2023-03-12T23:29:13.415Z,100416.91
2023-03-12T23:31:17.134Z,100408.66
2023-03-12T23:33:18.765Z,100405.78
2023-03-12T23:35:21.248Z,100403.78
2023-03-12T23:37:24.370Z,100397.22
2023-03-12T23:39:26.330Z,100390.81